Jump to content


AMERICAN AIRLINES FLIGHT AA2183 FLOWN ON 01-11-2018 BY CAPTAIN JIM BOERMAN

Pilot StatsCaptain Jim Boerman (LDP136) • 4,997.7 total hours • 1,501 total flights [View Logbook]
FLIGHT DETAILS
StatusReceived and approved on 2018-01-11 at 12:01:35
Origin AirportAustin Bergstrom Intl (KAUS) • Austin, Texas, United States (542 feet MSL)
Filed Flight PlanKAUS PUFER J27 LFK J50 VELCO J29 MEM Q34 SWAPP J42 BKW J147 CSN J48 BYRDD J230 RBV J42 LAURN KJFK
Destination AirportKennedy Intl (KJFK) • New York, New York, United States (13 feet MSL)
Alternate AirportPhiladelphia Intl (KPHL) • Philadelphia, Pennsylvania, United States (36 feet MSL)
AirlineAmerican Airlines
AircraftBoeing 737-800 | Winglets (73H / B737-800)
FS Aircraft UsedBoeing 737-823 American N915NN TWA Heritage
Cruising AltitudeFL350
Distance Flown1,320 nautical miles
Passengers Onboard95 passengers (58.64% full)
DEPARTURE DETAILS
Time Out07:25:42
Taxi Data155,876 lbs total with 25,326 lbs of fuel onboard
Takeoff Data07:40:41 (15 minutes after leaving gate/ramp) • 155,053 lbs total • 10° pitch at 160 knots
Departure METARKAUS 111153Z 19003KT 10SM BKN018 BKN040 13/13 A2974 RMK AO2 SLP068 60000 T01330133 10172 20122 56005 $
ARRIVAL DETAILS
Landing Data11:48:10 • 138,066 lbs total • 8° pitch doing 132 knots at a rate of -518.27 feet/minute with 6,768 lbs of fuel onboard
Time In12:03:34 (15 minutes after landing)
Ramp Weight137,318 lbs total
Total Fuel Used18,558 lbs
Total Block Time03:37:52 (3.6 hours) while 30 minutes were spent on the ground
Arrival METARKJFK 111651Z 23004KT 10SM BKN055 09/06 A3038 RMK AO2 SLP288 T00890061
MISCELLANEOUS DETAILS
LiveDISPATCH Version4.8.3.1
FS Version
FSUIPC Version5.12
OS VersionWindows 7 32-bit
Screen Resolution1920 x 1080
Pilot's CommentsNo Comments Reported
FLIGHT MAP